sensor_id;sensor_type;location;lat;lon;timestamp;temperature;humidity
59961;DHT22;55902;-37.980;-63.602;2023-02-21T00:01:37;25.60;42.90
59961;DHT22;55902;-37.980;-63.602;2023-02-21T00:04:22;25.50;42.60
59961;DHT22;55902;-37.980;-63.602;2023-02-21T00:07:10;25.40;43.50
59961;DHT22;55902;-37.980;-63.602;2023-02-21T00:09:55;25.40;44.00
59961;DHT22;55902;-37.980;-63.602;2023-02-21T00:12:40;25.30;44.10
59961;DHT22;55902;-37.980;-63.602;2023-02-21T00:15:25;25.20;44.00
59961;DHT22;55902;-37.980;-63.602;2023-02-21T00:18:10;25.20;43.90
59961;DHT22;55902;-37.980;-63.602;2023-02-21T00:20:55;25.20;44.40
59961;DHT22;55902;-37.980;-63.602;2023-02-21T00:23:40;25.10;44.70
59961;DHT22;55902;-37.980;-63.602;2023-02-21T00:26:25;25.00;44.50
59961;DHT22;55902;-37.980;-63.602;2023-02-21T00:29:10;25.00;44.40
59961;DHT22;55902;-37.980;-63.602;2023-02-21T00:31:55;24.90;44.40
59961;DHT22;55902;-37.980;-63.602;2023-02-21T00:34:40;24.90;44.40
59961;DHT22;55902;-37.980;-63.602;2023-02-21T00:37:28;24.80;44.60
59961;DHT22;55902;-37.980;-63.602;2023-02-21T00:40:15;24.70;44.50
59961;DHT22;55902;-37.980;-63.602;2023-02-21T00:43:00;24.60;44.70
59961;DHT22;55902;-37.980;-63.602;2023-02-21T00:45:45;24.50;44.80
59961;DHT22;55902;-37.980;-63.602;2023-02-21T00:48:31;24.40;44.70
59961;DHT22;55902;-37.980;-63.602;2023-02-21T00:51:16;24.40;44.10
59961;DHT22;55902;-37.980;-63.602;2023-02-21T00:54:01;24.30;44.50
59961;DHT22;55902;-37.980;-63.602;2023-02-21T00:56:46;24.30;44.20
59961;DHT22;55902;-37.980;-63.602;2023-02-21T00:59:31;24.20;44.40
59961;DHT22;55902;-37.980;-63.602;2023-02-21T01:02:16;24.20;44.50
59961;DHT22;55902;-37.980;-63.602;2023-02-21T01:05:01;24.20;44.50
59961;DHT22;55902;-37.980;-63.602;2023-02-21T01:07:49;24.10;44.60
59961;DHT22;55902;-37.980;-63.602;2023-02-21T01:10:34;24.10;44.40
59961;DHT22;55902;-37.980;-63.602;2023-02-21T01:13:20;24.00;44.90
59961;DHT22;55902;-37.980;-63.602;2023-02-21T01:16:06;24.00;44.90
59961;DHT22;55902;-37.980;-63.602;2023-02-21T01:18:52;23.90;45.00
59961;DHT22;55902;-37.980;-63.602;2023-02-21T01:21:36;23.80;45.40
59961;DHT22;55902;-37.980;-63.602;2023-02-21T01:24:21;23.70;45.40
59961;DHT22;55902;-37.980;-63.602;2023-02-21T01:27:07;23.70;45.60
59961;DHT22;55902;-37.980;-63.602;2023-02-21T01:29:52;23.60;45.70
59961;DHT22;55902;-37.980;-63.602;2023-02-21T01:32:37;23.50;45.90
59961;DHT22;55902;-37.980;-63.602;2023-02-21T01:35:22;23.40;46.20
59961;DHT22;55902;-37.980;-63.602;2023-02-21T01:38:10;23.30;46.40
59961;DHT22;55902;-37.980;-63.602;2023-02-21T01:40:55;23.20;46.70
59961;DHT22;55902;-37.980;-63.602;2023-02-21T01:43:57;23.10;47.10
59961;DHT22;55902;-37.980;-63.602;2023-02-21T01:46:42;23.00;47.30
59961;DHT22;55902;-37.980;-63.602;2023-02-21T01:49:28;23.00;47.50
59961;DHT22;55902;-37.980;-63.602;2023-02-21T01:52:13;22.90;47.80
59961;DHT22;55902;-37.980;-63.602;2023-02-21T01:54:58;22.80;47.60
59961;DHT22;55902;-37.980;-63.602;2023-02-21T01:57:44;22.70;48.00
59961;DHT22;55902;-37.980;-63.602;2023-02-21T02:00:29;22.60;48.10
59961;DHT22;55902;-37.980;-63.602;2023-02-21T02:03:17;22.60;48.20
59961;DHT22;55902;-37.980;-63.602;2023-02-21T02:06:07;22.50;48.40
59961;DHT22;55902;-37.980;-63.602;2023-02-21T02:08:52;22.40;48.60
59961;DHT22;55902;-37.980;-63.602;2023-02-21T02:14:56;22.30;48.80
59961;DHT22;55902;-37.980;-63.602;2023-02-21T02:29:09;21.90;50.20
59961;DHT22;55902;-37.980;-63.602;2023-02-21T02:32:14;21.80;50.30
59961;DHT22;55902;-37.980;-63.602;2023-02-21T02:34:58;21.80;50.30
59961;DHT22;55902;-37.980;-63.602;2023-02-21T02:37:39;21.70;50.50
59961;DHT22;55902;-37.980;-63.602;2023-02-21T02:43:40;21.70;50.70
59961;DHT22;55902;-37.980;-63.602;2023-02-21T02:46:26;21.70;50.70
59961;DHT22;55902;-37.980;-63.602;2023-02-21T02:51:26;21.70;51.00
59961;DHT22;55902;-37.980;-63.602;2023-02-21T02:53:54;21.60;51.70
59961;DHT22;55902;-37.980;-63.602;2023-02-21T02:56:22;21.60;51.50
59961;DHT22;55902;-37.980;-63.602;2023-02-21T02:58:58;21.60;51.50
59961;DHT22;55902;-37.980;-63.602;2023-02-21T03:07:46;21.50;51.70
59961;DHT22;55902;-37.980;-63.602;2023-02-21T03:10:22;21.50;51.90
59961;DHT22;55902;-37.980;-63.602;2023-02-21T03:13:09;21.50;51.90
59961;DHT22;55902;-37.980;-63.602;2023-02-21T03:21:08;21.40;52.40
59961;DHT22;55902;-37.980;-63.602;2023-02-21T03:23:37;21.30;52.60
59961;DHT22;55902;-37.980;-63.602;2023-02-21T03:26:08;21.30;52.50
59961;DHT22;55902;-37.980;-63.602;2023-02-21T03:28:36;21.30;53.10
59961;DHT22;55902;-37.980;-63.602;2023-02-21T03:31:06;21.20;53.20
59961;DHT22;55902;-37.980;-63.602;2023-02-21T03:33:34;21.20;52.80
59961;DHT22;55902;-37.980;-63.602;2023-02-21T03:36:05;21.20;53.10
59961;DHT22;55902;-37.980;-63.602;2023-02-21T03:38:34;21.20;53.40
59961;DHT22;55902;-37.980;-63.602;2023-02-21T03:41:01;21.10;53.40
59961;DHT22;55902;-37.980;-63.602;2023-02-21T03:43:28;21.10;53.50
59961;DHT22;55902;-37.980;-63.602;2023-02-21T03:45:54;21.10;53.40
59961;DHT22;55902;-37.980;-63.602;2023-02-21T03:48:21;21.10;53.40
59961;DHT22;55902;-37.980;-63.602;2023-02-21T03:50:48;21.00;53.70
59961;DHT22;55902;-37.980;-63.602;2023-02-21T03:53:15;21.00;54.20
59961;DHT22;55902;-37.980;-63.602;2023-02-21T03:55:42;21.00;53.80
59961;DHT22;55902;-37.980;-63.602;2023-02-21T03:58:09;21.00;53.70
59961;DHT22;55902;-37.980;-63.602;2023-02-21T04:00:36;20.90;53.80
59961;DHT22;55902;-37.980;-63.602;2023-02-21T04:03:03;20.80;54.70
59961;DHT22;55902;-37.980;-63.602;2023-02-21T04:05:30;20.80;55.00
59961;DHT22;55902;-37.980;-63.602;2023-02-21T04:07:57;20.70;54.80
59961;DHT22;55902;-37.980;-63.602;2023-02-21T04:10:27;20.70;55.20
59961;DHT22;55902;-37.980;-63.602;2023-02-21T04:12:54;20.60;55.50
59961;DHT22;55902;-37.980;-63.602;2023-02-21T04:15:21;20.50;55.30
59961;DHT22;55902;-37.980;-63.602;2023-02-21T04:17:48;20.50;55.90
59961;DHT22;55902;-37.980;-63.602;2023-02-21T04:20:15;20.50;55.90
59961;DHT22;55902;-37.980;-63.602;2023-02-21T04:22:42;20.40;56.20
59961;DHT22;55902;-37.980;-63.602;2023-02-21T04:25:10;20.30;56.80
59961;DHT22;55902;-37.980;-63.602;2023-02-21T04:27:36;20.30;56.70
59961;DHT22;55902;-37.980;-63.602;2023-02-21T04:30:03;20.20;56.50
59961;DHT22;55902;-37.980;-63.602;2023-02-21T04:32:31;20.20;57.30
59961;DHT22;55902;-37.980;-63.602;2023-02-21T04:34:57;20.20;57.30
59961;DHT22;55902;-37.980;-63.602;2023-02-21T04:37:24;20.10;57.70
59961;DHT22;55902;-37.980;-63.602;2023-02-21T04:39:51;20.10;57.10
59961;DHT22;55902;-37.980;-63.602;2023-02-21T04:42:18;20.00;57.60
59961;DHT22;55902;-37.980;-63.602;2023-02-21T04:44:45;20.00;57.50
59961;DHT22;55902;-37.980;-63.602;2023-02-21T04:47:12;19.90;56.80
59961;DHT22;55902;-37.980;-63.602;2023-02-21T04:49:40;19.90;57.00
59961;DHT22;55902;-37.980;-63.602;2023-02-21T04:52:06;19.90;57.20
59961;DHT22;55902;-37.980;-63.602;2023-02-21T04:54:33;19.80;58.10
59961;DHT22;55902;-37.980;-63.602;2023-02-21T04:57:00;19.80;58.10
59961;DHT22;55902;-37.980;-63.602;2023-02-21T04:59:27;19.70;57.80
59961;DHT22;55902;-37.980;-63.602;2023-02-21T05:01:54;19.70;57.50
59961;DHT22;55902;-37.980;-63.602;2023-02-21T05:04:21;19.70;58.70
59961;DHT22;55902;-37.980;-63.602;2023-02-21T05:06:48;19.70;58.60
59961;DHT22;55902;-37.980;-63.602;2023-02-21T05:09:15;19.60;58.00
59961;DHT22;55902;-37.980;-63.602;2023-02-21T05:11:42;19.60;58.80
59961;DHT22;55902;-37.980;-63.602;2023-02-21T05:14:09;19.60;58.00
59961;DHT22;55902;-37.980;-63.602;2023-02-21T05:16:36;19.50;58.60
59961;DHT22;55902;-37.980;-63.602;2023-02-21T05:19:03;19.50;59.10
59961;DHT22;55902;-37.980;-63.602;2023-02-21T05:21:34;19.50;59.20
59961;DHT22;55902;-37.980;-63.602;2023-02-21T05:24:07;19.40;59.80
59961;DHT22;55902;-37.980;-63.602;2023-02-21T05:26:36;19.40;60.00
59961;DHT22;55902;-37.980;-63.602;2023-02-21T05:29:04;19.40;59.30
59961;DHT22;55902;-37.980;-63.602;2023-02-21T05:31:31;19.40;59.70
59961;DHT22;55902;-37.980;-63.602;2023-02-21T05:33:58;19.40;59.50
59961;DHT22;55902;-37.980;-63.602;2023-02-21T05:36:26;19.50;59.80
59961;DHT22;55902;-37.980;-63.602;2023-02-21T05:38:54;19.50;59.60
59961;DHT22;55902;-37.980;-63.602;2023-02-21T05:41:22;19.50;59.60
59961;DHT22;55902;-37.980;-63.602;2023-02-21T05:43:49;19.50;59.50
59961;DHT22;55902;-37.980;-63.602;2023-02-21T05:46:20;19.50;59.30
59961;DHT22;55902;-37.980;-63.602;2023-02-21T05:48:48;19.50;59.30
59961;DHT22;55902;-37.980;-63.602;2023-02-21T05:51:15;19.50;59.20
59961;DHT22;55902;-37.980;-63.602;2023-02-21T05:53:42;19.50;59.10
59961;DHT22;55902;-37.980;-63.602;2023-02-21T05:56:10;19.50;59.00
59961;DHT22;55902;-37.980;-63.602;2023-02-21T05:58:37;19.60;58.90
59961;DHT22;55902;-37.980;-63.602;2023-02-21T06:01:05;19.60;59.00
59961;DHT22;55902;-37.980;-63.602;2023-02-21T06:03:32;19.60;59.00
59961;DHT22;55902;-37.980;-63.602;2023-02-21T06:05:59;19.60;58.60
59961;DHT22;55902;-37.980;-63.602;2023-02-21T06:08:26;19.60;58.50
59961;DHT22;55902;-37.980;-63.602;2023-02-21T06:10:53;19.60;58.50
59961;DHT22;55902;-37.980;-63.602;2023-02-21T06:13:20;19.60;58.70
59961;DHT22;55902;-37.980;-63.602;2023-02-21T06:15:49;19.60;58.40
59961;DHT22;55902;-37.980;-63.602;2023-02-21T06:18:18;19.50;58.70
59961;DHT22;55902;-37.980;-63.602;2023-02-21T06:20:44;19.60;58.40
59961;DHT22;55902;-37.980;-63.602;2023-02-21T06:23:11;19.50;58.70
59961;DHT22;55902;-37.980;-63.602;2023-02-21T06:25:38;19.50;58.80
59961;DHT22;55902;-37.980;-63.602;2023-02-21T06:28:05;19.40;59.00
59961;DHT22;55902;-37.980;-63.602;2023-02-21T06:30:33;19.40;58.80
59961;DHT22;55902;-37.980;-63.602;2023-02-21T06:33:01;19.40;59.00
59961;DHT22;55902;-37.980;-63.602;2023-02-21T06:35:28;19.30;59.40
59961;DHT22;55902;-37.980;-63.602;2023-02-21T06:37:55;19.30;59.50
59961;DHT22;55902;-37.980;-63.602;2023-02-21T06:40:22;19.20;59.10
59961;DHT22;55902;-37.980;-63.602;2023-02-21T06:46:19;19.20;59.80
59961;DHT22;55902;-37.980;-63.602;2023-02-21T06:48:46;19.20;59.50
59961;DHT22;55902;-37.980;-63.602;2023-02-21T06:51:13;19.20;59.60
59961;DHT22;55902;-37.980;-63.602;2023-02-21T06:53:41;19.10;59.40
59961;DHT22;55902;-37.980;-63.602;2023-02-21T06:56:08;19.10;59.60
59961;DHT22;55902;-37.980;-63.602;2023-02-21T06:58:37;19.00;59.90
59961;DHT22;55902;-37.980;-63.602;2023-02-21T07:01:04;19.10;59.90
59961;DHT22;55902;-37.980;-63.602;2023-02-21T07:03:30;19.00;60.30
59961;DHT22;55902;-37.980;-63.602;2023-02-21T07:06:00;19.00;59.90
59961;DHT22;55902;-37.980;-63.602;2023-02-21T07:08:27;19.00;60.00
59961;DHT22;55902;-37.980;-63.602;2023-02-21T07:10:54;19.00;60.80
59961;DHT22;55902;-37.980;-63.602;2023-02-21T07:13:21;18.90;61.20
59961;DHT22;55902;-37.980;-63.602;2023-02-21T07:15:50;18.80;61.30
59961;DHT22;55902;-37.980;-63.602;2023-02-21T07:18:17;18.90;61.00
59961;DHT22;55902;-37.980;-63.602;2023-02-21T07:20:44;18.80;61.60
59961;DHT22;55902;-37.980;-63.602;2023-02-21T07:23:11;18.70;62.10
59961;DHT22;55902;-37.980;-63.602;2023-02-21T07:25:38;18.60;62.30
59961;DHT22;55902;-37.980;-63.602;2023-02-21T07:28:05;18.60;62.30
59961;DHT22;55902;-37.980;-63.602;2023-02-21T07:30:32;18.60;62.40
59961;DHT22;55902;-37.980;-63.602;2023-02-21T07:32:59;18.50;62.70
59961;DHT22;55902;-37.980;-63.602;2023-02-21T07:35:26;18.50;63.00
59961;DHT22;55902;-37.980;-63.602;2023-02-21T07:37:53;18.40;62.60
59961;DHT22;55902;-37.980;-63.602;2023-02-21T07:40:20;18.40;62.90
59961;DHT22;55902;-37.980;-63.602;2023-02-21T07:42:47;18.40;62.60
59961;DHT22;55902;-37.980;-63.602;2023-02-21T07:45:15;18.40;62.90
59961;DHT22;55902;-37.980;-63.602;2023-02-21T07:47:43;18.40;63.30
59961;DHT22;55902;-37.980;-63.602;2023-02-21T07:50:11;18.30;62.90
59961;DHT22;55902;-37.980;-63.602;2023-02-21T07:52:38;18.30;62.70
59961;DHT22;55902;-37.980;-63.602;2023-02-21T07:55:05;18.20;63.60
59961;DHT22;55902;-37.980;-63.602;2023-02-21T07:57:32;18.20;63.80
59961;DHT22;55902;-37.980;-63.602;2023-02-21T07:59:59;18.10;63.30
59961;DHT22;55902;-37.980;-63.602;2023-02-21T08:02:26;18.10;63.20
59961;DHT22;55902;-37.980;-63.602;2023-02-21T08:04:53;18.00;63.90
59961;DHT22;55902;-37.980;-63.602;2023-02-21T08:07:20;18.00;63.60
59961;DHT22;55902;-37.980;-63.602;2023-02-21T08:09:47;18.00;63.90
59961;DHT22;55902;-37.980;-63.602;2023-02-21T08:12:14;17.90;64.50
59961;DHT22;55902;-37.980;-63.602;2023-02-21T08:14:40;17.90;64.80
59961;DHT22;55902;-37.980;-63.602;2023-02-21T08:17:10;17.90;64.60
59961;DHT22;55902;-37.980;-63.602;2023-02-21T08:19:39;17.80;65.20
59961;DHT22;55902;-37.980;-63.602;2023-02-21T08:22:06;17.80;65.00
59961;DHT22;55902;-37.980;-63.602;2023-02-21T08:24:33;17.70;64.30
59961;DHT22;55902;-37.980;-63.602;2023-02-21T08:27:00;17.70;65.30
59961;DHT22;55902;-37.980;-63.602;2023-02-21T08:29:27;17.60;65.40
59961;DHT22;55902;-37.980;-63.602;2023-02-21T08:31:54;17.60;65.50
59961;DHT22;55902;-37.980;-63.602;2023-02-21T08:34:21;17.60;64.80
59961;DHT22;55902;-37.980;-63.602;2023-02-21T08:36:50;17.60;63.90
59961;DHT22;55902;-37.980;-63.602;2023-02-21T08:39:17;17.60;63.90
59961;DHT22;55902;-37.980;-63.602;2023-02-21T08:41:45;17.50;64.30
59961;DHT22;55902;-37.980;-63.602;2023-02-21T08:44:15;17.50;64.70
59961;DHT22;55902;-37.980;-63.602;2023-02-21T08:46:43;17.40;66.00
59961;DHT22;55902;-37.980;-63.602;2023-02-21T08:49:10;17.30;66.30
59961;DHT22;55902;-37.980;-63.602;2023-02-21T08:51:37;17.30;65.40
59961;DHT22;55902;-37.980;-63.602;2023-02-21T08:54:06;17.20;66.50
59961;DHT22;55902;-37.980;-63.602;2023-02-21T08:56:33;17.20;67.80
59961;DHT22;55902;-37.980;-63.602;2023-02-21T09:02:24;17.10;65.80
59961;DHT22;55902;-37.980;-63.602;2023-02-21T09:04:51;17.00;66.70
59961;DHT22;55902;-37.980;-63.602;2023-02-21T09:07:20;17.00;68.00
59961;DHT22;55902;-37.980;-63.602;2023-02-21T09:09:49;16.90;68.40
59961;DHT22;55902;-37.980;-63.602;2023-02-21T09:12:16;16.90;68.00
59961;DHT22;55902;-37.980;-63.602;2023-02-21T09:14:45;16.90;68.30
59961;DHT22;55902;-37.980;-63.602;2023-02-21T09:17:13;16.80;68.40
59961;DHT22;55902;-37.980;-63.602;2023-02-21T09:19:41;16.80;68.20
59961;DHT22;55902;-37.980;-63.602;2023-02-21T09:22:09;16.80;68.50
59961;DHT22;55902;-37.980;-63.602;2023-02-21T09:24:37;16.80;68.90
59961;DHT22;55902;-37.980;-63.602;2023-02-21T09:27:04;16.80;68.50
59961;DHT22;55902;-37.980;-63.602;2023-02-21T09:29:33;16.70;69.70
59961;DHT22;55902;-37.980;-63.602;2023-02-21T09:32:01;16.60;69.90
59961;DHT22;55902;-37.980;-63.602;2023-02-21T09:34:28;16.60;68.60
59961;DHT22;55902;-37.980;-63.602;2023-02-21T09:36:55;16.60;69.80
59961;DHT22;55902;-37.980;-63.602;2023-02-21T09:39:23;16.60;69.50
59961;DHT22;55902;-37.980;-63.602;2023-02-21T09:41:51;16.60;69.70
59961;DHT22;55902;-37.980;-63.602;2023-02-21T09:44:26;16.60;69.30
59961;DHT22;55902;-37.980;-63.602;2023-02-21T09:47:04;16.60;69.30
59961;DHT22;55902;-37.980;-63.602;2023-02-21T09:49:36;16.60;69.70
59961;DHT22;55902;-37.980;-63.602;2023-02-21T09:52:06;16.50;70.00
59961;DHT22;55902;-37.980;-63.602;2023-02-21T09:54:44;16.60;69.90
59961;DHT22;55902;-37.980;-63.602;2023-02-21T09:57:17;16.60;69.70
59961;DHT22;55902;-37.980;-63.602;2023-02-21T09:59:46;16.60;70.10
59961;DHT22;55902;-37.980;-63.602;2023-02-21T10:08:18;16.70;69.80
59961;DHT22;55902;-37.980;-63.602;2023-02-21T10:10:57;16.70;69.80
59961;DHT22;55902;-37.980;-63.602;2023-02-21T10:16:25;16.80;69.80
59961;DHT22;55902;-37.980;-63.602;2023-02-21T10:19:03;16.90;69.70
59961;DHT22;55902;-37.980;-63.602;2023-02-21T10:21:36;16.90;69.90
59961;DHT22;55902;-37.980;-63.602;2023-02-21T10:24:12;16.90;69.90
59961;DHT22;55902;-37.980;-63.602;2023-02-21T10:26:47;16.90;69.90
59961;DHT22;55902;-37.980;-63.602;2023-02-21T10:32:00;16.90;70.60
59961;DHT22;55902;-37.980;-63.602;2023-02-21T10:34:31;17.00;70.60
59961;DHT22;55902;-37.980;-63.602;2023-02-21T10:37:14;16.90;70.90
59961;DHT22;55902;-37.980;-63.602;2023-02-21T10:39:48;17.00;70.90
59961;DHT22;55902;-37.980;-63.602;2023-02-21T10:42:39;17.10;70.50
59961;DHT22;55902;-37.980;-63.602;2023-02-21T10:45:09;17.20;70.20
59961;DHT22;55902;-37.980;-63.602;2023-02-21T10:50:11;17.30;70.00
59961;DHT22;55902;-37.980;-63.602;2023-02-21T10:52:49;17.40;69.90
59961;DHT22;55902;-37.980;-63.602;2023-02-21T10:55:21;17.40;69.90
59961;DHT22;55902;-37.980;-63.602;2023-02-21T10:57:54;17.50;69.50
59961;DHT22;55902;-37.980;-63.602;2023-02-21T11:00:31;17.60;69.00
59961;DHT22;55902;-37.980;-63.602;2023-02-21T11:03:25;17.70;69.40
59961;DHT22;55902;-37.980;-63.602;2023-02-21T11:05:56;17.80;69.10
59961;DHT22;55902;-37.980;-63.602;2023-02-21T11:11:37;17.90;68.20
59961;DHT22;55902;-37.980;-63.602;2023-02-21T11:16:44;18.00;68.70
59961;DHT22;55902;-37.980;-63.602;2023-02-21T11:19:13;18.00;68.60
59961;DHT22;55902;-37.980;-63.602;2023-02-21T11:21:41;18.10;68.50
59961;DHT22;55902;-37.980;-63.602;2023-02-21T11:24:11;18.10;68.70
59961;DHT22;55902;-37.980;-63.602;2023-02-21T11:26:51;18.20;68.40
59961;DHT22;55902;-37.980;-63.602;2023-02-21T11:29:23;18.30;68.30
59961;DHT22;55902;-37.980;-63.602;2023-02-21T11:31:52;18.40;68.20
59961;DHT22;55902;-37.980;-63.602;2023-02-21T11:34:19;18.50;68.10
59961;DHT22;55902;-37.980;-63.602;2023-02-21T11:36:47;18.60;67.50
59961;DHT22;55902;-37.980;-63.602;2023-02-21T11:39:30;18.70;67.30
59961;DHT22;55902;-37.980;-63.602;2023-02-21T11:41:59;18.90;66.80
59961;DHT22;55902;-37.980;-63.602;2023-02-21T11:44:34;19.10;66.30
59961;DHT22;55902;-37.980;-63.602;2023-02-21T11:52:59;20.00;63.70
59961;DHT22;55902;-37.980;-63.602;2023-02-21T11:55:27;20.50;62.00
59961;DHT22;55902;-37.980;-63.602;2023-02-21T11:58:04;20.90;60.60
59961;DHT22;55902;-37.980;-63.602;2023-02-21T12:00:52;21.40;59.60
59961;DHT22;55902;-37.980;-63.602;2023-02-21T12:09:06;22.40;56.60
59961;DHT22;55902;-37.980;-63.602;2023-02-21T12:22:34;23.70;54.00
59961;DHT22;55902;-37.980;-63.602;2023-02-21T12:27:55;24.20;52.40
59961;DHT22;55902;-37.980;-63.602;2023-02-21T12:47:34;25.90;48.20
59961;DHT22;55902;-37.980;-63.602;2023-02-21T13:00:40;26.60;47.70
59961;DHT22;55902;-37.980;-63.602;2023-02-21T13:06:25;26.60;47.00
59961;DHT22;55902;-37.980;-63.602;2023-02-21T13:09:08;26.80;46.70
59961;DHT22;55902;-37.980;-63.602;2023-02-21T13:14:17;27.20;46.50
59961;DHT22;55902;-37.980;-63.602;2023-02-21T13:16:45;27.50;46.90
59961;DHT22;55902;-37.980;-63.602;2023-02-21T13:19:13;27.60;45.10
59961;DHT22;55902;-37.980;-63.602;2023-02-21T13:21:53;27.80;45.50
59961;DHT22;55902;-37.980;-63.602;2023-02-21T13:32:52;28.30;43.30
59961;DHT22;55902;-37.980;-63.602;2023-02-21T13:37:59;28.20;44.00
59961;DHT22;55902;-37.980;-63.602;2023-02-21T13:43:30;28.60;43.60
59961;DHT22;55902;-37.980;-63.602;2023-02-21T13:57:50;29.20;42.30
59961;DHT22;55902;-37.980;-63.602;2023-02-21T14:08:31;29.40;41.90
59961;DHT22;55902;-37.980;-63.602;2023-02-21T14:13:48;29.50;41.20
59961;DHT22;55902;-37.980;-63.602;2023-02-21T14:16:35;29.60;41.00
59961;DHT22;55902;-37.980;-63.602;2023-02-21T14:19:10;29.90;40.60
59961;DHT22;55902;-37.980;-63.602;2023-02-21T14:21:48;30.20;40.00
59961;DHT22;55902;-37.980;-63.602;2023-02-21T14:24:27;30.60;39.70
59961;DHT22;55902;-37.980;-63.602;2023-02-21T14:29:33;31.00;38.50
59961;DHT22;55902;-37.980;-63.602;2023-02-21T14:40:16;30.70;38.40
59961;DHT22;55902;-37.980;-63.602;2023-02-21T14:57:23;31.20;37.60
59961;DHT22;55902;-37.980;-63.602;2023-02-21T15:00:18;31.40;37.40
59961;DHT22;55902;-37.980;-63.602;2023-02-21T15:03:16;31.70;37.50
59961;DHT22;55902;-37.980;-63.602;2023-02-21T15:06:02;31.90;37.20
59961;DHT22;55902;-37.980;-63.602;2023-02-21T15:08:41;31.90;37.10
59961;DHT22;55902;-37.980;-63.602;2023-02-21T15:13:43;32.10;36.30
59961;DHT22;55902;-37.980;-63.602;2023-02-21T15:16:13;32.10;36.60
59961;DHT22;55902;-37.980;-63.602;2023-02-21T15:18:59;32.20;36.70
59961;DHT22;55902;-37.980;-63.602;2023-02-21T15:21:27;32.40;37.70
59961;DHT22;55902;-37.980;-63.602;2023-02-21T15:24:05;32.60;36.20
59961;DHT22;55902;-37.980;-63.602;2023-02-21T15:26:38;32.70;36.50
59961;DHT22;55902;-37.980;-63.602;2023-02-21T15:29:10;32.60;36.00
59961;DHT22;55902;-37.980;-63.602;2023-02-21T15:31:48;32.80;36.70
59961;DHT22;55902;-37.980;-63.602;2023-02-21T15:34:21;32.70;36.20
59961;DHT22;55902;-37.980;-63.602;2023-02-21T15:39:39;32.50;35.90
59961;DHT22;55902;-37.980;-63.602;2023-02-21T15:42:08;32.70;36.70
59961;DHT22;55902;-37.980;-63.602;2023-02-21T15:44:56;32.70;36.50
59961;DHT22;55902;-37.980;-63.602;2023-02-21T15:47:26;33.00;36.20
59961;DHT22;55902;-37.980;-63.602;2023-02-21T15:50:06;33.20;36.10
59961;DHT22;55902;-37.980;-63.602;2023-02-21T15:52:39;33.30;36.10
59961;DHT22;55902;-37.980;-63.602;2023-02-21T15:58:08;33.30;36.20
59961;DHT22;55902;-37.980;-63.602;2023-02-21T16:00:45;33.20;36.10
59961;DHT22;55902;-37.980;-63.602;2023-02-21T16:06:24;33.50;36.40
59961;DHT22;55902;-37.980;-63.602;2023-02-21T16:14:36;33.90;35.70
59961;DHT22;55902;-37.980;-63.602;2023-02-21T16:20:01;34.10;35.80
59961;DHT22;55902;-37.980;-63.602;2023-02-21T16:22:39;34.20;35.60
59961;DHT22;55902;-37.980;-63.602;2023-02-21T16:25:10;34.30;35.30
59961;DHT22;55902;-37.980;-63.602;2023-02-21T16:27:40;34.60;35.50
59961;DHT22;55902;-37.980;-63.602;2023-02-21T16:30:21;34.60;34.80
59961;DHT22;55902;-37.980;-63.602;2023-02-21T16:32:49;34.50;35.00
59961;DHT22;55902;-37.980;-63.602;2023-02-21T16:35:19;34.50;35.20
59961;DHT22;55902;-37.980;-63.602;2023-02-21T16:37:49;34.50;35.30
59961;DHT22;55902;-37.980;-63.602;2023-02-21T16:40:26;34.70;35.10
59961;DHT22;55902;-37.980;-63.602;2023-02-21T16:42:55;34.50;34.80
59961;DHT22;55902;-37.980;-63.602;2023-02-21T16:52:15;34.60;35.20
59961;DHT22;55902;-37.980;-63.602;2023-02-21T16:54:43;35.00;35.40
59961;DHT22;55902;-37.980;-63.602;2023-02-21T16:57:11;35.40;34.60
59961;DHT22;55902;-37.980;-63.602;2023-02-21T16:59:39;35.50;34.30
59961;DHT22;55902;-37.980;-63.602;2023-02-21T17:02:12;35.60;34.10
59961;DHT22;55902;-37.980;-63.602;2023-02-21T17:04:40;35.60;34.10
59961;DHT22;55902;-37.980;-63.602;2023-02-21T17:07:07;35.60;34.30
59961;DHT22;55902;-37.980;-63.602;2023-02-21T17:09:36;35.80;34.30
59961;DHT22;55902;-37.980;-63.602;2023-02-21T17:12:05;35.80;34.00
59961;DHT22;55902;-37.980;-63.602;2023-02-21T17:14:33;35.90;34.10
59961;DHT22;55902;-37.980;-63.602;2023-02-21T17:17:00;36.00;33.70
59961;DHT22;55902;-37.980;-63.602;2023-02-21T17:19:27;36.30;33.60
59961;DHT22;55902;-37.980;-63.602;2023-02-21T17:21:54;36.50;33.20
59961;DHT22;55902;-37.980;-63.602;2023-02-21T17:24:23;36.90;33.00
59961;DHT22;55902;-37.980;-63.602;2023-02-21T17:26:52;37.00;32.90
59961;DHT22;55902;-37.980;-63.602;2023-02-21T17:29:19;36.70;32.90
59961;DHT22;55902;-37.980;-63.602;2023-02-21T17:31:52;36.80;33.00
59961;DHT22;55902;-37.980;-63.602;2023-02-21T17:34:19;36.80;33.00
59961;DHT22;55902;-37.980;-63.602;2023-02-21T17:36:50;37.00;33.00
59961;DHT22;55902;-37.980;-63.602;2023-02-21T17:39:19;37.30;32.90
59961;DHT22;55902;-37.980;-63.602;2023-02-21T17:41:50;37.20;32.40
59961;DHT22;55902;-37.980;-63.602;2023-02-21T17:44:18;37.40;32.60
59961;DHT22;55902;-37.980;-63.602;2023-02-21T17:46:50;37.60;32.40
59961;DHT22;55902;-37.980;-63.602;2023-02-21T17:49:19;37.60;32.50
59961;DHT22;55902;-37.980;-63.602;2023-02-21T17:51:46;37.50;32.90
59961;DHT22;55902;-37.980;-63.602;2023-02-21T17:54:20;37.70;32.50
59961;DHT22;55902;-37.980;-63.602;2023-02-21T17:59:50;37.70;32.30
59961;DHT22;55902;-37.980;-63.602;2023-02-21T18:02:18;37.70;32.20
59961;DHT22;55902;-37.980;-63.602;2023-02-21T18:04:45;37.70;32.50
59961;DHT22;55902;-37.980;-63.602;2023-02-21T18:07:16;37.70;32.60
59961;DHT22;55902;-37.980;-63.602;2023-02-21T18:17:05;37.70;32.00
59961;DHT22;55902;-37.980;-63.602;2023-02-21T18:19:32;37.80;32.10
59961;DHT22;55902;-37.980;-63.602;2023-02-21T18:21:59;38.10;32.30
59961;DHT22;55902;-37.980;-63.602;2023-02-21T18:24:31;38.60;31.90
59961;DHT22;55902;-37.980;-63.602;2023-02-21T18:26:58;38.70;31.50
59961;DHT22;55902;-37.980;-63.602;2023-02-21T18:29:25;38.60;31.30
59961;DHT22;55902;-37.980;-63.602;2023-02-21T18:31:52;38.50;31.50
59961;DHT22;55902;-37.980;-63.602;2023-02-21T18:34:20;38.50;31.40
59961;DHT22;55902;-37.980;-63.602;2023-02-21T18:36:49;38.30;31.40
59961;DHT22;55902;-37.980;-63.602;2023-02-21T18:39:19;38.30;31.40
59961;DHT22;55902;-37.980;-63.602;2023-02-21T18:41:47;38.20;31.50
59961;DHT22;55902;-37.980;-63.602;2023-02-21T18:44:14;38.00;31.70
59961;DHT22;55902;-37.980;-63.602;2023-02-21T18:46:54;37.80;31.80
59961;DHT22;55902;-37.980;-63.602;2023-02-21T18:49:22;37.30;32.10
59961;DHT22;55902;-37.980;-63.602;2023-02-21T18:51:50;36.70;32.60
59961;DHT22;55902;-37.980;-63.602;2023-02-21T18:54:18;36.80;33.90
59961;DHT22;55902;-37.980;-63.602;2023-02-21T18:56:49;36.90;33.60